Time;durP1;ratioP1;P1;durP2;ratioP2;P2;SDS_P1;SDS_P2;PMS_P1;PMS_P2;Temp;Humidity;BMP_temperature;BMP_pressure;BME280_temperature;BME280_humidity;BME280_pressure;Samples;Min_cycle;Max_cycle;Signal;HPM_P1;HPM_P2
2023/07/20 00:01:11;;;;;;;6.57;2.55;;;17.50;90.10;;;;;;5002817;28;20026;-79
2023/07/20 00:03:36;;;;;;;3.92;2.40;;;17.50;89.60;;;;;;4959061;28;20030;-78
2023/07/20 00:06:04;;;;;;;4.85;2.45;;;17.50;89.90;;;;;;4960170;28;20031;-79
2023/07/20 00:08:29;;;;;;;4.30;2.55;;;17.50;90.20;;;;;;4958563;28;20038;-79
2023/07/20 00:10:55;;;;;;;5.20;2.50;;;17.50;89.80;;;;;;4967713;28;20027;-78
2023/07/20 00:13:21;;;;;;;4.78;1.95;;;17.50;89.80;;;;;;4969179;28;20031;-78
2023/07/20 00:15:46;;;;;;;6.53;2.50;;;17.50;90.30;;;;;;4986564;28;20060;-79
2023/07/20 00:18:12;;;;;;;3.20;2.55;;;17.50;90.50;;;;;;4968202;28;20034;-79
2023/07/20 00:20:38;;;;;;;3.63;2.60;;;17.50;90.80;;;;;;4977766;28;20035;-78
2023/07/20 00:23:03;;;;;;;4.15;2.65;;;17.50;90.60;;;;;;4988804;28;20044;-79
2023/07/20 00:25:29;;;;;;;5.95;3.42;;;17.40;89.50;;;;;;4963252;28;20174;-78
2023/07/20 00:27:55;;;;;;;6.63;3.63;;;17.50;90.30;;;;;;4971268;28;20034;-78
2023/07/20 00:30:20;;;;;;;4.60;3.63;;;17.40;89.20;;;;;;4956879;28;20035;-79
2023/07/20 00:32:46;;;;;;;5.22;2.85;;;17.30;89.50;;;;;;4958770;28;20676;-78
2023/07/20 00:35:14;;;;;;;4.40;2.25;;;17.20;90.50;;;;;;4955419;28;20442;-78
2023/07/20 00:37:40;;;;;;;12.13;3.53;;;17.30;90.60;;;;;;4969991;28;20038;-78
2023/07/20 00:40:07;;;;;;;6.60;3.10;;;17.40;91.00;;;;;;4956942;28;20042;-79
2023/07/20 00:42:32;;;;;;;6.65;3.78;;;17.20;91.10;;;;;;4969880;28;20050;-79
2023/07/20 00:44:58;;;;;;;4.35;2.65;;;17.20;90.70;;;;;;4956439;28;20071;-79
2023/07/20 00:47:24;;;;;;;4.50;2.05;;;17.10;90.70;;;;;;4958123;28;20027;-79
2023/07/20 00:49:49;;;;;;;6.10;3.65;;;17.10;91.30;;;;;;4986434;28;20029;-78
2023/07/20 00:52:15;;;;;;;9.00;3.65;;;17.00;91.30;;;;;;4955139;28;20042;-79
2023/07/20 00:54:41;;;;;;;12.70;4.85;;;17.00;91.30;;;;;;4953666;28;20134;-79
2023/07/20 00:57:07;;;;;;;4.85;2.15;;;16.90;93.60;;;;;;4953846;28;20483;-78
2023/07/20 00:59:33;;;;;;;5.05;3.13;;;16.90;92.50;;;;;;4956799;28;20042;-78
2023/07/20 01:01:59;;;;;;;3.60;2.40;;;16.90;92.10;;;;;;4971406;28;20762;-78
2023/07/20 01:04:26;;;;;;;4.75;2.50;;;16.70;92.90;;;;;;4942654;28;20034;-78
2023/07/20 01:07:07;;;;;;;4.45;3.40;;;16.80;93.60;;;;;;4940690;28;20045;-79
2023/07/20 01:10:12;;;;;;;6.60;4.35;;;16.80;93.00;;;;;;4941770;28;20486;-79
2023/07/20 01:12:42;;;;;;;3.42;2.33;;;17.00;92.70;;;;;;4894615;29;20083;-78
2023/07/20 01:15:08;;;;;;;6.68;3.50;;;17.20;92.70;;;;;;4945667;28;20034;-78
2023/07/20 01:17:34;;;;;;;5.60;3.63;;;17.20;95.00;;;;;;4984675;28;20032;-78
2023/07/20 01:20:00;;;;;;;4.53;2.63;;;16.90;95.60;;;;;;4972200;28;20057;-78
2023/07/20 01:22:44;;;;;;;4.00;2.67;;;16.90;94.40;;;;;;4970943;28;20398;-78
2023/07/20 01:25:47;;;;;;;4.97;3.65;;;16.80;94.90;;;;;;4987444;28;20045;-78
2023/07/20 01:28:37;;;;;;;5.03;3.35;;;17.00;96.50;;;;;;4956741;28;20394;-78
2023/07/20 01:31:13;;;;;;;9.48;2.95;;;17.00;94.90;;;;;;4971328;28;20221;-78
2023/07/20 01:33:38;;;;;;;;;;;17.00;95.00;;;;;;4969831;28;20031;-78
2023/07/20 01:36:04;;;;;;;7.10;4.13;;;16.80;95.20;;;;;;4970030;28;19918;-78
2023/07/20 01:38:29;;;;;;;4.80;2.80;;;16.70;96.00;;;;;;4970390;28;20035;-78
2023/07/20 01:40:55;;;;;;;6.90;4.70;;;16.70;96.50;;;;;;4973965;28;20337;-78
2023/07/20 01:43:21;;;;;;;4.55;2.95;;;16.70;98.30;;;;;;4951872;28;20174;-78
2023/07/20 01:45:46;;;;;;;11.77;3.90;;;16.60;96.40;;;;;;4986716;28;20026;-78
2023/07/20 01:48:12;;;;;;;10.98;5.35;;;16.60;97.70;;;;;;4986363;28;20474;-78
2023/07/20 01:50:38;;;;;;;5.05;2.97;;;16.80;97.50;;;;;;4954643;28;20154;-78
2023/07/20 01:53:03;;;;;;;3.55;2.83;;;16.40;96.80;;;;;;4917241;28;1109492;-78
2023/07/20 01:55:29;;;;;;;7.90;3.53;;;16.70;97.00;;;;;;4972469;28;20041;-78
2023/07/20 01:57:55;;;;;;;5.20;2.78;;;16.70;99.70;;;;;;4971449;28;20030;-78
2023/07/20 02:00:23;;;;;;;4.10;2.30;;;16.80;97.60;;;;;;4971302;28;20393;-79
2023/07/20 02:02:49;;;;;;;5.50;3.65;;;16.90;97.70;;;;;;4964787;28;20034;-79
2023/07/20 02:05:15;;;;;;;6.75;3.05;;;16.70;98.50;;;;;;4955749;28;20034;-79
2023/07/20 02:07:40;;;;;;;5.60;2.63;;;16.80;99.20;;;;;;4955566;28;20043;-79
2023/07/20 02:10:06;;;;;;;5.75;2.70;;;16.80;99.40;;;;;;4949585;28;20039;-79
2023/07/20 02:12:32;;;;;;;7.07;3.22;;;16.70;99.90;;;;;;4965891;28;20038;-79
2023/07/20 02:14:57;;;;;;;6.50;4.20;;;16.60;99.90;;;;;;4983201;28;20493;-78
2023/07/20 02:17:23;;;;;;;5.43;2.97;;;16.30;99.50;;;;;;4956547;28;20474;-78
2023/07/20 02:19:57;;;;;;;7.90;2.60;;;16.30;99.90;;;;;;4979607;28;20117;-78
2023/07/20 02:22:23;;;;;;;5.00;3.58;;;16.30;99.90;;;;;;4985722;28;20532;-78
2023/07/20 02:24:49;;;;;;;9.00;4.32;;;16.50;99.90;;;;;;4998583;28;20054;-78
2023/07/20 02:27:14;;;;;;;5.43;4.43;;;16.50;99.90;;;;;;4969891;28;20070;-77
2023/07/20 02:29:41;;;;;;;8.48;4.18;;;16.50;99.90;;;;;;4971210;28;20101;-78
2023/07/20 02:32:07;;;;;;;5.65;3.72;;;16.30;99.90;;;;;;4976591;28;20034;-78
2023/07/20 02:34:33;;;;;;;6.13;3.78;;;16.30;99.90;;;;;;4974888;28;20076;-79
2023/07/20 02:37:00;;;;;;;10.43;4.35;;;16.30;99.90;;;;;;4986538;28;20018;-78
2023/07/20 02:39:27;;;;;;;8.55;4.50;;;16.40;99.90;;;;;;4971443;28;20405;-78
2023/07/20 02:41:53;;;;;;;9.38;4.75;;;16.40;99.90;;;;;;4960099;28;20034;-77
2023/07/20 02:44:18;;;;;;;9.65;6.00;;;16.30;99.90;;;;;;4986391;28;20068;-77
2023/07/20 02:46:44;;;;;;;8.90;6.15;;;16.30;99.90;;;;;;4969196;28;20031;-77
2023/07/20 02:49:09;;;;;;;9.48;6.97;;;16.20;99.90;;;;;;4970119;28;20153;-77
2023/07/20 02:51:35;;;;;;;10.23;7.30;;;16.10;99.90;;;;;;4958196;28;20382;-77
2023/07/20 02:54:01;;;;;;;11.40;8.55;;;16.00;99.90;;;;;;4968758;28;20145;-77
2023/07/20 02:56:26;;;;;;;10.98;7.32;;;16.00;99.90;;;;;;4964244;28;20046;-77
2023/07/20 02:58:52;;;;;;;12.80;7.07;;;16.00;99.90;;;;;;4976750;28;20442;-78
2023/07/20 03:01:18;;;;;;;15.10;7.60;;;16.00;99.90;;;;;;4984034;28;20034;-77
2023/07/20 03:03:46;;;;;;;8.48;5.10;;;16.00;99.90;;;;;;4952308;28;20405;-77
2023/07/20 03:06:14;;;;;;;7.38;5.38;;;16.10;99.90;;;;;;4976376;28;20038;-77
2023/07/20 03:08:41;;;;;;;9.70;7.45;;;16.10;99.90;;;;;;4982832;28;20026;-77
2023/07/20 03:11:06;;;;;;;7.05;5.03;;;16.10;99.90;;;;;;4966613;28;20168;-77
2023/07/20 03:13:32;;;;;;;9.15;6.00;;;16.10;99.90;;;;;;4952459;28;20558;-77
2023/07/20 03:15:57;;;;;;;8.63;6.25;;;16.20;99.90;;;;;;4955734;28;20065;-77
2023/07/20 03:18:23;;;;;;;8.52;5.20;;;16.10;99.90;;;;;;4959309;28;20027;-78
2023/07/20 03:20:49;;;;;;;11.90;9.13;;;16.10;99.90;;;;;;4974608;28;20118;-78
2023/07/20 03:23:15;;;;;;;7.40;5.57;;;16.10;99.90;;;;;;4984322;28;20094;-78
2023/07/20 03:25:41;;;;;;;11.50;6.75;;;16.10;99.90;;;;;;4973564;28;20045;-78
2023/07/20 03:28:06;;;;;;;12.55;6.90;;;16.20;99.90;;;;;;4977663;28;20422;-78
2023/07/20 03:30:32;;;;;;;10.07;6.75;;;16.10;99.90;;;;;;4965700;28;20486;-78
2023/07/20 03:32:57;;;;;;;6.30;4.20;;;16.00;99.90;;;;;;4964746;28;20065;-78
2023/07/20 03:35:23;;;;;;;11.25;5.85;;;15.90;99.90;;;;;;4953252;28;20138;-78
2023/07/20 03:37:48;;;;;;;7.18;5.40;;;15.80;99.90;;;;;;4950125;28;20046;-78
2023/07/20 03:40:15;;;;;;;5.45;4.65;;;15.80;99.90;;;;;;4970001;28;20088;-78
2023/07/20 03:42:41;;;;;;;8.93;5.95;;;15.80;99.90;;;;;;4969530;28;20097;-78
2023/07/20 03:45:07;;;;;;;4.90;4.05;;;15.80;99.90;;;;;;4973453;28;20478;-78
2023/07/20 03:47:33;;;;;;;6.65;4.85;;;15.70;99.90;;;;;;4969929;28;20023;-78
2023/07/20 03:49:58;;;;;;;10.73;6.72;;;15.80;99.90;;;;;;4955490;28;20549;-78
2023/07/20 03:52:24;;;;;;;12.65;7.05;;;15.70;99.90;;;;;;4983147;28;20043;-78
2023/07/20 03:54:51;;;;;;;8.48;6.03;;;15.60;99.90;;;;;;4950465;28;20538;-77
2023/07/20 03:57:16;;;;;;;11.00;6.20;;;15.60;99.90;;;;;;4967998;28;20122;-77
2023/07/20 03:59:44;;;;;;;8.30;6.00;;;15.60;99.90;;;;;;4956712;28;20129;-78
2023/07/20 04:02:10;;;;;;;11.93;9.68;;;15.60;99.90;;;;;;4985533;28;20030;-78
2023/07/20 04:04:36;;;;;;;13.15;9.90;;;15.60;99.90;;;;;;4954579;28;20663;-77
2023/07/20 04:07:01;;;;;;;12.82;7.97;;;15.50;99.90;;;;;;4966654;28;20430;-78
2023/07/20 04:09:27;;;;;;;7.88;6.53;;;15.50;99.90;;;;;;4958822;28;20030;-78
2023/07/20 04:11:52;;;;;;;24.52;8.13;;;15.50;99.90;;;;;;4981311;28;20030;-78
2023/07/20 04:14:18;;;;;;;15.70;10.68;;;15.30;99.90;;;;;;4954700;28;20849;-78
2023/07/20 04:16:45;;;;;;;17.15;11.23;;;15.00;99.90;;;;;;4971988;28;20386;-78
2023/07/20 04:19:11;;;;;;;13.68;10.05;;;15.00;99.90;;;;;;4972772;28;20478;-78
2023/07/20 04:21:40;;;;;;;15.70;8.93;;;15.20;99.90;;;;;;4969512;28;20038;-78
2023/07/20 04:24:06;;;;;;;11.75;8.77;;;15.30;99.90;;;;;;4951597;28;20089;-77
2023/07/20 04:26:31;;;;;;;15.60;11.75;;;15.30;99.90;;;;;;4951645;28;20030;-78
2023/07/20 04:28:59;;;;;;;22.63;17.17;;;15.60;99.90;;;;;;4970220;28;20040;-78
2023/07/20 04:31:24;;;;;;;22.40;16.85;;;15.70;99.90;;;;;;4962629;28;20055;-79
2023/07/20 04:33:50;;;;;;;17.35;15.32;;;15.60;99.90;;;;;;4966064;28;20561;-78
2023/07/20 04:36:19;;;;;;;30.77;17.55;;;15.70;99.90;;;;;;4983283;28;20031;-78
2023/07/20 04:38:47;;;;;;;17.80;12.52;;;15.70;99.90;;;;;;4953000;28;20034;-79
2023/07/20 04:41:15;;;;;;;28.48;20.02;;;15.70;99.90;;;;;;4967925;28;20069;-78
2023/07/20 04:43:44;;;;;;;29.08;22.00;;;15.70;99.90;;;;;;4966174;28;20066;-78
2023/07/20 04:46:12;;;;;;;16.98;11.98;;;15.90;99.90;;;;;;4968219;28;20037;-80
2023/07/20 04:48:38;;;;;;;22.15;17.48;;;15.80;99.90;;;;;;4956722;28;20023;-78
2023/07/20 04:51:03;;;;;;;21.17;15.00;;;15.90;99.90;;;;;;4955940;28;20038;-78
2023/07/20 04:53:30;;;;;;;25.48;20.30;;;15.90;99.90;;;;;;4940578;28;20039;-79
2023/07/20 04:55:56;;;;;;;32.42;21.77;;;16.00;99.90;;;;;;4970778;28;20492;-79
2023/07/20 04:58:22;;;;;;;27.42;22.40;;;16.00;99.90;;;;;;4955399;28;20031;-78
2023/07/20 05:00:50;;;;;;;31.20;24.65;;;16.10;99.90;;;;;;4969744;28;20039;-78
2023/07/20 05:03:16;;;;;;;30.55;23.75;;;16.00;99.90;;;;;;4954320;28;20042;-79
2023/07/20 05:05:41;;;;;;;30.13;23.58;;;16.00;99.90;;;;;;4979992;28;20035;-79
2023/07/20 05:08:07;;;;;;;28.77;24.23;;;16.00;99.90;;;;;;4954564;28;20035;-79
2023/07/20 05:10:32;;;;;;;24.95;20.33;;;16.00;99.90;;;;;;4978962;28;20027;-78
2023/07/20 05:12:59;;;;;;;33.15;21.95;;;16.10;99.90;;;;;;4962664;28;20043;-78
2023/07/20 05:15:24;;;;;;;27.13;22.02;;;16.10;99.90;;;;;;4937639;28;20027;-78
2023/07/20 05:17:50;;;;;;;24.92;20.45;;;16.20;99.90;;;;;;4968071;28;20122;-78
2023/07/20 05:20:16;;;;;;;21.52;17.42;;;16.20;99.90;;;;;;4954201;28;20030;-79
2023/07/20 05:22:42;;;;;;;24.98;20.45;;;16.30;99.90;;;;;;4967284;28;20035;-78
2023/07/20 05:25:08;;;;;;;25.05;17.13;;;16.30;99.90;;;;;;4970417;28;20474;-78
2023/07/20 05:27:35;;;;;;;24.83;20.63;;;16.30;99.90;;;;;;4970577;28;20026;-78
2023/07/20 05:30:01;;;;;;;22.33;18.38;;;16.40;99.90;;;;;;4954116;28;20114;-78
2023/07/20 05:32:27;;;;;;;29.77;21.95;;;16.50;99.90;;;;;;4971564;28;20129;-78
2023/07/20 05:34:54;;;;;;;30.02;23.83;;;16.40;99.90;;;;;;4968407;28;20126;-79
2023/07/20 05:37:20;;;;;;;38.72;29.80;;;16.50;99.90;;;;;;4969229;28;20086;-79
2023/07/20 05:39:45;;;;;;;40.25;33.42;;;16.50;99.90;;;;;;4974954;28;20498;-77
2023/07/20 05:42:11;;;;;;;37.33;29.73;;;16.60;99.90;;;;;;4968018;28;20030;-77
2023/07/20 05:44:36;;;;;;;38.55;28.83;;;16.60;99.90;;;;;;4967452;28;20019;-77
2023/07/20 05:47:04;;;;;;;34.72;28.63;;;16.60;99.90;;;;;;4968995;28;20089;-78
2023/07/20 05:49:30;;;;;;;31.98;27.05;;;16.70;99.90;;;;;;4940763;28;20110;-77
2023/07/20 05:51:56;;;;;;;32.90;24.60;;;16.70;99.90;;;;;;4958109;28;20143;-77
2023/07/20 05:54:25;;;;;;;27.15;22.85;;;16.80;99.90;;;;;;4983125;28;20046;-76
2023/07/20 05:56:51;;;;;;;28.08;22.27;;;16.80;99.90;;;;;;4967668;28;20042;-76
2023/07/20 05:59:16;;;;;;;23.05;19.90;;;16.90;99.90;;;;;;4968559;28;20043;-76
2023/07/20 06:01:43;;;;;;;21.55;17.25;;;16.90;99.90;;;;;;4957514;28;20062;-76
2023/07/20 06:04:09;;;;;;;18.75;16.85;;;16.90;99.90;;;;;;4951872;28;20062;-76
2023/07/20 06:06:34;;;;;;;19.45;16.30;;;16.90;99.90;;;;;;4968141;28;20110;-76
2023/07/20 06:09:03;;;;;;;17.60;15.40;;;16.90;99.90;;;;;;4968603;28;20490;-77
2023/07/20 06:11:32;;;;;;;20.00;16.02;;;17.10;99.90;;;;;;4955203;28;20425;-76
2023/07/20 06:13:57;;;;;;;17.73;14.95;;;17.10;99.90;;;;;;4986672;28;20409;-77
2023/07/20 06:16:23;;;;;;;18.48;16.58;;;17.20;99.90;;;;;;4966783;28;20034;-77
2023/07/20 06:18:48;;;;;;;17.08;14.10;;;17.40;99.90;;;;;;4963925;28;20029;-76
2023/07/20 06:21:14;;;;;;;18.02;15.23;;;17.60;99.90;;;;;;4970257;28;20033;-77
2023/07/20 06:23:40;;;;;;;16.88;15.15;;;17.80;99.90;;;;;;4971616;28;20494;-77
2023/07/20 06:26:07;;;;;;;18.48;14.70;;;18.10;99.90;;;;;;4969803;28;20544;-77
2023/07/20 06:28:32;;;;;;;15.02;13.50;;;18.30;99.90;;;;;;4982875;28;20030;-77
2023/07/20 06:31:02;;;;;;;16.58;14.98;;;18.60;99.90;;;;;;4966443;28;20045;-76
2023/07/20 06:33:27;;;;;;;15.70;14.13;;;18.90;99.90;;;;;;4967271;28;20497;-76
2023/07/20 06:35:53;;;;;;;19.08;17.13;;;19.20;99.90;;;;;;4969348;28;20029;-77
2023/07/20 06:38:19;;;;;;;15.60;14.10;;;19.30;99.90;;;;;;4971640;28;20034;-77
2023/07/20 06:40:47;;;;;;;13.93;12.60;;;19.40;99.90;;;;;;4968000;28;20046;-77
2023/07/20 06:43:13;;;;;;;13.15;10.10;;;19.40;99.90;;;;;;4983865;28;20041;-77
2023/07/20 06:45:39;;;;;;;10.77;9.68;;;19.40;99.90;;;;;;4972747;28;20336;-77
2023/07/20 06:48:04;;;;;;;16.15;13.55;;;19.30;99.90;;;;;;4958819;28;20027;-77
2023/07/20 06:50:30;;;;;;;19.48;17.42;;;19.40;99.90;;;;;;4979753;28;20038;-77
2023/07/20 06:52:56;;;;;;;21.48;16.75;;;19.50;99.90;;;;;;4984429;28;20125;-76
2023/07/20 06:55:21;;;;;;;22.38;18.38;;;19.70;99.90;;;;;;4985287;28;20069;-76
2023/07/20 06:57:47;;;;;;;20.70;16.52;;;20.00;99.90;;;;;;4953937;28;20041;-77
2023/07/20 07:00:13;;;;;;;26.15;20.10;;;20.20;99.90;;;;;;4957502;28;20039;-77
2023/07/20 07:02:39;;;;;;;28.23;22.85;;;20.40;99.90;;;;;;4967148;28;20073;-77
2023/07/20 07:05:05;;;;;;;29.23;24.67;;;20.60;99.90;;;;;;4969648;28;20434;-77
2023/07/20 07:07:30;;;;;;;22.52;19.67;;;21.00;99.90;;;;;;4964731;28;20407;-79
2023/07/20 07:09:56;;;;;;;20.50;18.08;;;21.30;99.90;;;;;;4983829;28;20065;-77
2023/07/20 07:12:22;;;;;;;20.17;16.75;;;21.50;99.90;;;;;;4954866;28;20049;-77
2023/07/20 07:14:47;;;;;;;9.68;8.43;;;21.70;99.90;;;;;;4967285;28;20034;-77
2023/07/20 07:17:13;;;;;;;10.18;9.13;;;22.10;99.90;;;;;;4966695;28;20367;-77
2023/07/20 07:19:39;;;;;;;12.45;11.07;;;22.30;99.90;;;;;;4967402;28;20483;-77
2023/07/20 07:22:04;;;;;;;16.17;13.13;;;22.50;99.90;;;;;;4948522;28;20386;-77
2023/07/20 07:24:33;;;;;;;16.40;14.73;;;22.70;99.90;;;;;;4982157;28;20061;-79
2023/07/20 07:27:01;;;;;;;15.85;14.18;;;23.10;99.90;;;;;;4967006;28;20508;-76
2023/07/20 07:29:26;;;;;;;17.08;15.27;;;23.40;99.90;;;;;;4964557;28;20057;-78
2023/07/20 07:31:52;;;;;;;16.52;14.82;;;23.60;99.90;;;;;;4967326;28;20457;-77
2023/07/20 07:34:17;;;;;;;19.42;17.02;;;23.90;99.90;;;;;;4967335;28;20046;-78
2023/07/20 07:36:43;;;;;;;18.63;16.80;;;24.20;99.90;;;;;;4966984;28;20045;-77
2023/07/20 07:39:09;;;;;;;18.20;16.23;;;24.60;99.90;;;;;;4970055;28;20453;-77
2023/07/20 07:41:35;;;;;;;17.75;15.95;;;24.70;99.90;;;;;;4968720;28;20036;-77
2023/07/20 07:44:00;;;;;;;16.38;14.77;;;25.20;99.90;;;;;;4999623;28;20518;-77
2023/07/20 07:46:26;;;;;;;16.58;14.88;;;25.50;99.90;;;;;;4943195;28;20027;-77
2023/07/20 07:48:52;;;;;;;12.77;11.48;;;25.60;99.90;;;;;;4957664;28;20027;-76
2023/07/20 07:51:17;;;;;;;11.23;9.57;;;25.80;99.90;;;;;;4962821;28;20078;-77
2023/07/20 07:53:43;;;;;;;8.85;8.15;;;25.90;99.90;;;;;;4949825;28;20565;-77
2023/07/20 07:56:09;;;;;;;8.43;7.60;;;26.00;99.90;;;;;;4949266;28;20110;-77
2023/07/20 07:58:34;;;;;;;7.68;7.05;;;26.10;99.90;;;;;;4965923;28;20125;-77
2023/07/20 08:01:00;;;;;;;8.23;6.82;;;26.20;99.90;;;;;;4967874;28;20074;-77
2023/07/20 08:03:26;;;;;;;5.50;4.95;;;26.20;99.80;;;;;;4964751;28;20102;-77
2023/07/20 08:05:55;;;;;;;5.35;4.95;;;26.30;99.50;;;;;;4978059;28;20058;-76
2023/07/20 08:08:21;;;;;;;6.18;5.57;;;26.30;98.60;;;;;;4979328;28;20125;-76
2023/07/20 08:10:47;;;;;;;4.90;4.50;;;26.40;99.20;;;;;;4950267;28;20070;-78
2023/07/20 08:13:12;;;;;;;4.53;4.10;;;26.60;97.80;;;;;;4955749;28;20039;-77
2023/07/20 08:15:38;;;;;;;3.47;3.17;;;26.60;97.10;;;;;;4956756;28;20038;-77
2023/07/20 08:18:04;;;;;;;5.05;3.60;;;26.90;97.70;;;;;;4976144;28;20031;-77
2023/07/20 08:20:29;;;;;;;2.88;2.67;;;27.10;96.50;;;;;;4968871;28;20030;-78
2023/07/20 08:22:55;;;;;;;2.08;1.88;;;27.40;96.50;;;;;;4971954;28;20037;-77
2023/07/20 08:25:21;;;;;;;1.85;1.70;;;27.60;95.60;;;;;;4974470;28;20038;-77
2023/07/20 08:27:47;;;;;;;1.88;1.48;;;27.90;94.70;;;;;;4968524;28;20050;-77
2023/07/20 08:30:13;;;;;;;10.05;1.90;;;28.30;95.40;;;;;;4985179;28;20376;-77
2023/07/20 08:32:39;;;;;;;1.85;1.60;;;28.40;93.80;;;;;;4957289;28;20039;-77
2023/07/20 08:35:05;;;;;;;2.55;2.05;;;28.70;92.60;;;;;;4962022;28;20494;-77
2023/07/20 08:37:31;;;;;;;3.00;2.00;;;28.60;91.40;;;;;;4954616;28;20141;-78
2023/07/20 08:39:57;;;;;;;2.25;2.05;;;28.50;90.70;;;;;;4961327;28;20585;-77
2023/07/20 08:42:22;;;;;;;2.75;2.55;;;28.40;87.90;;;;;;4956929;28;20023;-78
2023/07/20 08:44:48;;;;;;;3.97;3.63;;;28.60;90.80;;;;;;4952364;28;20439;-77
2023/07/20 08:47:14;;;;;;;3.60;3.20;;;28.60;88.90;;;;;;4949254;28;20042;-78
2023/07/20 08:49:39;;;;;;;3.40;2.65;;;28.60;88.40;;;;;;4953861;28;20384;-78
2023/07/20 08:52:05;;;;;;;2.88;2.58;;;28.60;84.90;;;;;;4964900;28;20035;-78
2023/07/20 08:54:34;;;;;;;5.55;3.00;;;28.50;84.90;;;;;;4970019;28;20035;-78
2023/07/20 08:57:04;;;;;;;3.10;2.03;;;28.40;85.40;;;;;;4948371;28;20053;-77
2023/07/20 08:59:30;;;;;;;2.67;1.98;;;28.30;83.00;;;;;;4990181;28;20023;-78
2023/07/20 09:01:56;;;;;;;2.25;2.05;;;28.40;83.80;;;;;;4984463;28;20045;-78
2023/07/20 09:04:22;;;;;;;3.13;1.35;;;28.50;81.60;;;;;;4958175;28;20367;-78
2023/07/20 09:06:49;;;;;;;1.77;1.55;;;28.50;80.80;;;;;;4954139;28;20037;-78
2023/07/20 09:09:14;;;;;;;1.77;1.67;;;28.60;79.30;;;;;;4970700;28;20169;-79
2023/07/20 09:11:40;;;;;;;2.45;1.77;;;28.60;76.30;;;;;;4969815;28;20153;-78
2023/07/20 09:14:09;;;;;;;1.77;1.45;;;28.70;72.20;;;;;;4962225;28;20130;-78
2023/07/20 09:16:52;;;;;;;1.48;1.38;;;28.60;76.50;;;;;;4952677;28;20119;-79
2023/07/20 09:19:18;;;;;;;1.83;1.50;;;28.80;76.60;;;;;;4958910;28;20109;-78
2023/07/20 09:21:47;;;;;;;2.03;1.23;;;28.90;74.40;;;;;;4970235;28;20133;-78
2023/07/20 09:24:13;;;;;;;2.35;1.20;;;29.10;74.80;;;;;;4959462;28;20062;-78
2023/07/20 09:26:45;;;;;;;5.07;1.73;;;29.10;75.80;;;;;;4961492;28;20055;-79
2023/07/20 09:29:11;;;;;;;3.63;1.40;;;29.30;75.30;;;;;;4972946;28;20585;-77
2023/07/20 09:31:37;;;;;;;4.95;1.60;;;29.70;73.50;;;;;;4973570;28;20129;-79
2023/07/20 09:34:03;;;;;;;2.45;1.55;;;29.80;72.00;;;;;;4968373;28;20264;-79
2023/07/20 09:36:29;;;;;;;1.55;1.30;;;30.10;70.90;;;;;;4966925;28;20513;-79
2023/07/20 09:38:55;;;;;;;1.35;1.20;;;29.70;68.70;;;;;;4952118;28;20062;-79
2023/07/20 09:41:21;;;;;;;1.40;1.00;;;29.50;69.70;;;;;;4972043;28;20030;-78
2023/07/20 09:43:46;;;;;;;1.30;0.80;;;29.30;68.80;;;;;;4970580;28;20130;-79
2023/07/20 09:46:12;;;;;;;6.28;0.90;;;29.20;69.00;;;;;;4984630;28;20042;-79
2023/07/20 09:48:37;;;;;;;2.53;1.10;;;29.20;68.00;;;;;;4958036;28;20549;-79
2023/07/20 09:51:05;;;;;;;3.72;0.90;;;29.20;68.50;;;;;;4973510;28;20042;-79
2023/07/20 09:53:30;;;;;;;1.15;0.80;;;29.40;64.60;;;;;;4973024;28;20569;-79
2023/07/20 09:55:56;;;;;;;1.00;0.82;;;29.50;65.40;;;;;;4967973;28;20106;-79
2023/07/20 09:58:22;;;;;;;0.70;0.70;;;29.70;65.50;;;;;;4972257;28;20041;-79
2023/07/20 10:00:50;;;;;;;2.15;0.80;;;29.60;66.10;;;;;;4969067;28;20045;-79
2023/07/20 10:03:22;;;;;;;1.10;1.00;;;29.80;64.10;;;;;;4968208;28;20441;-79
2023/07/20 10:06:15;;;;;;;1.70;0.80;;;30.10;63.70;;;;;;4952194;28;20039;-79
2023/07/20 10:08:41;;;;;;;1.50;0.75;;;30.30;59.30;;;;;;4959829;28;20031;-78
2023/07/20 10:11:07;;;;;;;0.77;0.50;;;30.30;60.50;;;;;;4971719;28;20049;-79
2023/07/20 10:13:32;;;;;;;1.25;0.60;;;30.30;61.80;;;;;;4974272;28;20391;-79
2023/07/20 10:16:10;;;;;;;2.25;0.63;;;30.50;62.90;;;;;;4965868;28;20474;-79
2023/07/20 10:18:45;;;;;;;8.85;0.98;;;30.90;57.60;;;;;;4970208;28;20548;-79
2023/07/20 10:21:10;;;;;;;1.83;0.60;;;30.90;58.30;;;;;;4971192;28;20486;-79
2023/07/20 10:23:39;;;;;;;0.82;0.57;;;30.80;58.50;;;;;;4953486;28;20045;-79
2023/07/20 10:26:04;;;;;;;0.73;0.50;;;30.80;58.40;;;;;;4965997;28;20031;-79
2023/07/20 10:28:30;;;;;;;2.25;0.70;;;30.80;58.80;;;;;;4973100;28;20030;-79
2023/07/20 10:30:58;;;;;;;0.50;0.50;;;30.70;57.00;;;;;;4969220;28;20054;-79
2023/07/20 10:33:24;;;;;;;1.08;0.60;;;30.50;57.70;;;;;;4968276;28;20046;-79
2023/07/20 10:35:57;;;;;;;0.57;0.57;;;30.40;57.40;;;;;;4995225;28;20083;-80
2023/07/20 10:38:41;;;;;;;1.05;0.60;;;30.30;58.80;;;;;;4983061;28;20498;-80
2023/07/20 10:41:28;;;;;;;1.98;0.70;;;30.20;58.00;;;;;;4989750;28;20561;-80
2023/07/20 10:44:07;;;;;;;1.67;0.55;;;30.10;58.30;;;;;;4955093;28;20034;-80
2023/07/20 10:46:34;;;;;;;1.42;1.10;;;30.20;59.80;;;;;;4982328;28;20117;-79
2023/07/20 10:49:04;;;;;;;1.55;0.80;;;30.30;60.10;;;;;;4929201;28;20040;-79
2023/07/20 10:51:29;;;;;;;1.90;0.82;;;30.60;59.00;;;;;;4970155;28;20445;-79
2023/07/20 10:53:58;;;;;;;0.85;0.60;;;30.90;56.70;;;;;;4954493;28;20052;-79
2023/07/20 10:56:32;;;;;;;1.65;0.70;;;31.00;57.20;;;;;;4956142;28;21500;-79
2023/07/20 10:59:00;;;;;;;1.17;0.93;;;31.30;56.20;;;;;;4978167;28;20494;-79
2023/07/20 11:01:30;;;;;;;0.63;0.60;;;31.50;57.00;;;;;;4975112;28;20078;-80
2023/07/20 11:03:58;;;;;;;4.25;0.77;;;31.60;55.90;;;;;;4956066;28;20034;-79
2023/07/20 11:06:26;;;;;;;0.80;0.80;;;31.40;54.10;;;;;;4969014;28;20054;-79
2023/07/20 11:09:10;;;;;;;1.30;0.77;;;31.40;54.60;;;;;;4958413;28;20038;-79
2023/07/20 11:11:37;;;;;;;1.10;0.70;;;31.30;54.80;;;;;;4264163;28;10000671;-78
2023/07/20 11:14:04;;;;;;;1.30;1.20;;;31.10;53.80;;;;;;4938699;28;20054;-78
2023/07/20 11:16:37;;;;;;;1.58;0.95;;;31.10;55.00;;;;;;4979136;28;20569;-78
2023/07/20 11:19:06;;;;;;;2.00;1.00;;;31.20;54.60;;;;;;4995869;28;20038;-78
2023/07/20 11:21:36;;;;;;;1.60;1.13;;;31.50;57.00;;;;;;4999191;28;20042;-78
2023/07/20 11:24:06;;;;;;;1.00;1.00;;;31.90;54.60;;;;;;4982968;28;20045;-77
2023/07/20 11:26:40;;;;;;;3.75;1.08;;;32.20;54.60;;;;;;4968204;28;20026;-78
2023/07/20 11:29:05;;;;;;;1.42;1.33;;;32.40;53.70;;;;;;4980151;28;20146;-78
2023/07/20 11:31:33;;;;;;;1.05;0.80;;;32.70;54.30;;;;;;4970102;28;20113;-78
2023/07/20 11:33:59;;;;;;;1.10;0.88;;;32.90;55.50;;;;;;4983870;28;20061;-78
2023/07/20 11:36:24;;;;;;;1.40;1.27;;;33.10;55.00;;;;;;4951828;28;20531;-78
2023/07/20 11:38:50;;;;;;;0.98;0.70;;;33.20;53.70;;;;;;4974746;28;20046;-78
2023/07/20 11:41:16;;;;;;;0.70;0.70;;;33.70;53.60;;;;;;4965304;28;20033;-78
2023/07/20 11:43:42;;;;;;;2.13;0.63;;;34.00;52.30;;;;;;4958716;28;20640;-78
2023/07/20 11:46:07;;;;;;;0.80;0.80;;;34.40;51.20;;;;;;4967649;28;20069;-78
2023/07/20 11:48:33;;;;;;;1.27;0.90;;;34.50;48.30;;;;;;4953375;28;20057;-79
2023/07/20 11:50:59;;;;;;;0.93;0.70;;;34.60;49.70;;;;;;4948902;28;20172;-77
2023/07/20 11:53:25;;;;;;;0.70;0.70;;;34.90;48.50;;;;;;4966108;28;20038;-77
2023/07/20 11:55:51;;;;;;;2.53;0.73;;;34.90;47.90;;;;;;4984115;28;20134;-78
2023/07/20 11:58:16;;;;;;;1.98;0.95;;;34.60;48.80;;;;;;5003526;28;20109;-79
2023/07/20 12:00:43;;;;;;;3.42;0.88;;;34.60;47.90;;;;;;4964349;28;20097;-79
2023/07/20 12:03:11;;;;;;;1.00;0.90;;;34.30;47.70;;;;;;4985167;28;20038;-79
2023/07/20 12:05:38;;;;;;;1.15;0.90;;;34.30;47.50;;;;;;4959084;28;20653;-79
2023/07/20 12:08:03;;;;;;;4.53;0.95;;;34.00;47.40;;;;;;4960164;28;20034;-79
2023/07/20 12:10:29;;;;;;;1.63;1.00;;;34.00;47.40;;;;;;4981135;28;20448;-79
2023/07/20 12:13:00;;;;;;;1.48;0.82;;;33.80;46.80;;;;;;4971504;28;20112;-79
2023/07/20 12:15:26;;;;;;;1.48;1.17;;;33.60;47.10;;;;;;4954808;28;20555;-76
2023/07/20 12:17:53;;;;;;;1.40;1.10;;;33.60;46.10;;;;;;4982251;28;20141;-79
2023/07/20 12:20:29;;;;;;;1.90;0.90;;;33.60;47.40;;;;;;4954993;28;20069;-79
2023/07/20 12:22:59;;;;;;;1.55;1.00;;;33.50;47.40;;;;;;4953497;28;20042;-79
2023/07/20 12:25:33;;;;;;;1.05;1.00;;;33.40;47.30;;;;;;4972567;28;20018;-79
2023/07/20 12:28:02;;;;;;;1.17;1.00;;;33.40;47.50;;;;;;5000302;28;20557;-79
2023/07/20 12:30:28;;;;;;;1.20;1.00;;;33.70;46.80;;;;;;4957276;28;20437;-79
2023/07/20 12:32:53;;;;;;;2.33;1.33;;;33.60;46.50;;;;;;4957877;28;20031;-79
2023/07/20 12:35:19;;;;;;;3.00;1.00;;;33.60;45.70;;;;;;4970003;28;20082;-79
2023/07/20 12:37:48;;;;;;;1.65;1.00;;;33.50;46.60;;;;;;4957665;28;20042;-79
2023/07/20 12:40:14;;;;;;;4.32;1.10;;;33.50;46.10;;;;;;4972026;28;20030;-79